createdAt,value
2023-03-13T00:01:19.520Z,24.38
2023-03-13T00:03:48.008Z,24.48
2023-03-13T00:06:16.969Z,24.75
2023-03-13T00:08:46.538Z,24.67
2023-03-13T00:11:16.422Z,24.73
2023-03-13T00:13:45.572Z,25.25
2023-03-13T00:16:15.774Z,25.07
2023-03-13T00:18:46.824Z,25.18
2023-03-13T00:21:15.225Z,24.31
2023-03-13T00:23:43.483Z,25.43
2023-03-13T00:26:14.855Z,25.50
2023-03-13T00:28:45.815Z,25.55
2023-03-13T00:31:14.972Z,24.73
2023-03-13T00:33:44.731Z,25.58
2023-03-13T00:36:15.191Z,25.97
2023-03-13T00:38:43.795Z,25.79
2023-03-13T00:41:14.891Z,25.70
2023-03-13T00:43:44.369Z,26.01
2023-03-13T00:46:14.161Z,26.03
2023-03-13T00:48:42.467Z,25.98
2023-03-13T00:51:11.825Z,26.10
2023-03-13T00:53:40.185Z,25.96
2023-03-13T00:56:10.383Z,25.82
2023-03-13T00:58:42.072Z,26.42
2023-03-13T01:01:11.831Z,26.32
2023-03-13T01:03:40.944Z,26.24
2023-03-13T01:06:11.386Z,26.07
2023-03-13T01:08:39.861Z,26.31
2023-03-13T01:11:10.051Z,26.72
2023-03-13T01:13:40.249Z,26.42
2023-03-13T01:16:11.134Z,26.07
2023-03-13T01:18:42.056Z,26.41
2023-03-13T01:21:10.957Z,26.61
2023-03-13T01:23:39.401Z,27.24
2023-03-13T01:26:09.379Z,27.03
2023-03-13T01:28:39.313Z,27.18
2023-03-13T01:31:14.681Z,26.77
2023-03-13T01:33:43.466Z,27.08
2023-03-13T01:36:12.181Z,27.32
2023-03-13T01:38:40.989Z,27.48
2023-03-13T01:41:12.732Z,27.38
2023-03-13T01:43:42.440Z,27.18
2023-03-13T01:46:16.265Z,27.48
2023-03-13T01:48:51.201Z,26.88
2023-03-13T01:51:22.866Z,26.94
2023-03-13T01:53:52.419Z,26.17
2023-03-13T01:56:24.306Z,27.33
2023-03-13T01:58:54.596Z,27.20
2023-03-13T02:01:24.546Z,27.23
2023-03-13T02:03:53.099Z,27.54
2023-03-13T02:06:21.695Z,27.35
2023-03-13T02:08:54.192Z,27.69
2023-03-13T02:11:31.152Z,27.59
2023-03-13T02:14:01.995Z,27.98
2023-03-13T02:16:30.604Z,28.08
2023-03-13T02:18:58.962Z,28.34
2023-03-13T02:21:38.535Z,28.12
2023-03-13T02:24:14.474Z,27.93
2023-03-13T02:26:44.465Z,28.16
2023-03-13T02:29:18.578Z,28.44
2023-03-13T02:31:48.547Z,28.40
2023-03-13T02:34:20.494Z,28.12
2023-03-13T02:36:49.409Z,28.50
2023-03-13T02:39:20.012Z,28.41
2023-03-13T02:41:50.348Z,28.20
2023-03-13T02:44:18.719Z,28.73
2023-03-13T02:46:50.519Z,28.56
2023-03-13T02:49:23.352Z,28.40
2023-03-13T02:51:52.450Z,28.61
2023-03-13T02:54:22.978Z,28.71
2023-03-13T02:56:56.726Z,28.38
2023-03-13T02:59:25.761Z,28.43
2023-03-13T03:01:54.428Z,28.45
2023-03-13T03:04:23.565Z,29.03
2023-03-13T03:06:52.814Z,28.53
2023-03-13T03:09:21.860Z,28.83
2023-03-13T03:11:50.420Z,28.76
2023-03-13T03:14:20.157Z,28.56
2023-03-13T03:16:49.025Z,29.01
2023-03-13T03:19:17.375Z,29.11
2023-03-13T03:21:46.538Z,29.25
2023-03-13T03:24:14.758Z,29.10
2023-03-13T03:26:43.414Z,29.05
2023-03-13T03:29:11.970Z,29.03
2023-03-13T03:31:42.216Z,29.10
2023-03-13T03:34:10.571Z,29.64
2023-03-13T03:36:39.206Z,29.38
2023-03-13T03:39:09.949Z,29.73
2023-03-13T03:41:38.580Z,29.39
2023-03-13T03:44:07.365Z,29.36
2023-03-13T03:46:35.961Z,29.63
2023-03-13T03:49:05.628Z,29.51
2023-03-13T03:51:34.309Z,29.68
2023-03-13T03:54:02.598Z,29.67
2023-03-13T03:56:31.254Z,29.99
2023-03-13T03:58:59.537Z,29.90
2023-03-13T04:01:28.194Z,30.12
2023-03-13T04:03:56.504Z,30.09
2023-03-13T04:06:26.520Z,29.84
2023-03-13T04:08:55.646Z,30.10
2023-03-13T04:11:24.277Z,30.33
2023-03-13T04:13:52.778Z,29.97
2023-03-13T04:16:21.309Z,30.02
2023-03-13T04:18:49.664Z,29.62
2023-03-13T04:21:18.220Z,29.92
2023-03-13T04:23:48.046Z,29.66
2023-03-13T04:26:16.680Z,30.01
2023-03-13T04:28:45.049Z,30.34
2023-03-13T04:31:13.642Z,30.18
2023-03-13T04:33:42.170Z,29.94
2023-03-13T04:36:11.211Z,29.75
2023-03-13T04:38:39.678Z,29.76
2023-03-13T04:41:09.685Z,29.48
2023-03-13T04:43:37.988Z,30.06
2023-03-13T04:46:06.661Z,29.90
2023-03-13T04:48:35.243Z,29.98
2023-03-13T04:51:03.934Z,29.78
2023-03-13T04:53:32.264Z,29.91
2023-03-13T04:56:01.048Z,29.96
2023-03-13T04:58:30.895Z,29.94
2023-03-13T05:00:59.472Z,29.82
2023-03-13T05:03:27.805Z,29.54
2023-03-13T05:05:56.437Z,29.87
2023-03-13T05:08:24.944Z,29.90
2023-03-13T05:10:53.509Z,29.57
2023-03-13T05:13:21.905Z,29.62
2023-03-13T05:15:51.971Z,29.28
2023-03-13T05:18:20.356Z,29.79
2023-03-13T05:20:49.163Z,29.50
2023-03-13T05:23:17.543Z,29.80
2023-03-13T05:25:46.224Z,29.72
2023-03-13T05:28:14.836Z,29.60
2023-03-13T05:30:43.496Z,29.64
2023-03-13T05:33:13.347Z,29.82
2023-03-13T05:35:41.994Z,30.00
2023-03-13T05:38:10.455Z,29.39
2023-03-13T05:40:38.955Z,29.92
2023-03-13T05:43:07.454Z,29.66
2023-03-13T05:45:36.046Z,29.57
2023-03-13T05:48:04.209Z,29.87
2023-03-13T05:50:34.220Z,29.81
2023-03-13T05:53:02.571Z,30.04
2023-03-13T05:55:31.106Z,29.91
2023-03-13T05:57:59.378Z,29.44
2023-03-13T06:00:28.273Z,29.55
2023-03-13T06:02:56.638Z,29.12
2023-03-13T06:05:25.227Z,29.26
2023-03-13T06:07:55.040Z,28.49
2023-03-13T06:10:26.123Z,28.44
2023-03-13T06:12:55.071Z,28.26
2023-03-13T06:15:24.153Z,27.66
2023-03-13T06:17:52.531Z,27.51
2023-03-13T06:20:22.388Z,27.43
2023-03-13T06:22:50.737Z,27.47
2023-03-13T06:25:20.703Z,27.25
2023-03-13T06:27:49.032Z,27.28
2023-03-13T06:30:17.857Z,27.00
2023-03-13T06:32:51.577Z,26.34
2023-03-13T06:35:20.134Z,25.95
2023-03-13T06:37:48.564Z,24.89
2023-03-13T06:40:17.332Z,23.63
2023-03-13T06:42:47.143Z,22.60
2023-03-13T06:45:15.989Z,22.69
2023-03-13T06:47:44.421Z,21.80
2023-03-13T06:50:13.125Z,20.54
2023-03-13T06:52:44.108Z,19.49
2023-03-13T06:55:12.954Z,18.69
2023-03-13T06:57:41.409Z,19.97
2023-03-13T07:00:13.461Z,20.09
2023-03-13T07:02:42.064Z,20.76
2023-03-13T07:05:14.638Z,21.52
2023-03-13T07:07:43.319Z,22.24
2023-03-13T07:10:13.081Z,22.29
2023-03-13T07:12:41.430Z,21.35
2023-03-13T07:15:12.461Z,19.26
2023-03-13T07:17:40.787Z,18.13
2023-03-13T07:20:11.825Z,17.22
2023-03-13T07:22:40.326Z,16.70
2023-03-13T07:25:10.847Z,17.30
2023-03-13T07:27:39.214Z,17.69
2023-03-13T07:30:08.822Z,17.46
2023-03-13T07:32:38.579Z,17.09
2023-03-13T07:35:07.976Z,16.85
2023-03-13T07:37:36.292Z,16.17
2023-03-13T07:40:05.777Z,15.97
2023-03-13T07:42:34.377Z,15.73
2023-03-13T07:45:03.030Z,15.59
2023-03-13T07:47:31.433Z,14.76
2023-03-13T07:50:01.477Z,14.14
2023-03-13T07:52:29.853Z,13.80
2023-03-13T07:54:58.538Z,13.38
2023-03-13T07:57:27.219Z,13.24
2023-03-13T07:59:55.906Z,13.00
2023-03-13T08:02:24.355Z,13.05
2023-03-13T08:04:54.176Z,12.51
2023-03-13T08:07:23.886Z,12.15
2023-03-13T08:09:52.496Z,11.93
2023-03-13T08:12:20.765Z,11.99
2023-03-13T08:14:49.508Z,11.71
2023-03-13T08:17:17.947Z,11.73
2023-03-13T08:19:46.558Z,12.41
2023-03-13T08:22:14.997Z,12.84
2023-03-13T08:24:45.017Z,12.54
2023-03-13T08:27:13.251Z,12.11
2023-03-13T08:29:44.375Z,11.34
2023-03-13T08:32:15.694Z,10.61
2023-03-13T08:34:44.373Z,10.05
2023-03-13T08:37:16.695Z,10.21
2023-03-13T08:39:48.672Z,10.43
2023-03-13T08:42:17.008Z,11.07
2023-03-13T08:44:46.329Z,10.91
2023-03-13T08:47:14.657Z,11.27
2023-03-13T08:49:43.609Z,11.21
2023-03-13T08:52:12.153Z,10.43
2023-03-13T08:54:40.984Z,10.44
2023-03-13T08:57:10.613Z,11.22
2023-03-13T08:59:39.146Z,11.79
2023-03-13T09:02:07.601Z,11.71
2023-03-13T09:04:36.295Z,11.64
2023-03-13T09:07:04.660Z,11.66
2023-03-13T09:09:33.301Z,11.55
2023-03-13T09:12:01.579Z,11.06
2023-03-13T09:14:31.529Z,10.53
2023-03-13T09:16:59.756Z,9.73
2023-03-13T09:19:28.316Z,9.31
2023-03-13T09:21:56.553Z,9.18
2023-03-13T09:24:25.540Z,8.78
2023-03-13T09:27:01.041Z,8.41
2023-03-13T09:29:33.433Z,8.77
2023-03-13T09:32:02.147Z,8.39
2023-03-13T09:34:32.118Z,8.56
2023-03-13T09:37:00.600Z,8.52
2023-03-13T09:39:29.439Z,7.98
2023-03-13T09:42:06.794Z,7.50
2023-03-13T09:44:41.859Z,7.93
2023-03-13T09:47:13.794Z,9.80
2023-03-13T09:49:44.335Z,10.79
2023-03-13T09:52:17.928Z,10.36
2023-03-13T09:54:50.585Z,9.82
2023-03-13T09:57:24.068Z,9.27
2023-03-13T09:59:57.667Z,9.56
2023-03-13T10:02:32.923Z,8.47
2023-03-13T10:05:07.586Z,9.43
2023-03-13T10:07:35.919Z,10.21
2023-03-13T10:10:08.113Z,10.78
2023-03-13T10:12:40.424Z,11.28
2023-03-13T10:15:34.339Z,11.68
2023-03-13T10:18:13.664Z,10.87
2023-03-13T10:20:42.433Z,10.38
2023-03-13T10:23:16.253Z,9.89
2023-03-13T10:25:44.758Z,9.76
2023-03-13T10:28:16.930Z,9.21
2023-03-13T10:30:49.373Z,8.27
2023-03-13T10:33:25.645Z,7.40
2023-03-13T10:36:06.563Z,6.93
2023-03-13T10:38:37.019Z,7.07
2023-03-13T10:41:10.586Z,8.10
2023-03-13T10:43:51.852Z,8.46
2023-03-13T10:46:29.219Z,9.59
2023-03-13T10:48:58.615Z,10.83
2023-03-13T10:51:39.710Z,11.97
2023-03-13T10:54:26.015Z,13.01
2023-03-13T10:57:14.204Z,13.81
2023-03-13T10:59:44.936Z,13.99
2023-03-13T11:02:36.964Z,14.19
2023-03-13T11:05:33.724Z,14.39
2023-03-13T11:08:13.739Z,15.11
2023-03-13T11:10:54.817Z,15.04
2023-03-13T11:13:37.137Z,15.19
2023-03-13T11:16:24.081Z,15.48
2023-03-13T11:19:12.037Z,15.95
2023-03-13T11:21:46.153Z,16.16
2023-03-13T11:24:17.159Z,16.64
2023-03-13T11:27:01.985Z,16.56
2023-03-13T11:29:38.820Z,16.21
2023-03-13T11:32:15.730Z,16.38
2023-03-13T11:34:48.832Z,17.34
2023-03-13T11:37:19.613Z,17.18
2023-03-13T11:39:55.024Z,17.36
2023-03-13T11:42:55.957Z,17.46
2023-03-13T11:45:46.417Z,16.84
2023-03-13T11:48:20.861Z,17.09
2023-03-13T11:50:53.870Z,17.10
2023-03-13T11:53:34.634Z,16.74
2023-03-13T11:56:10.487Z,16.58
2023-03-13T11:58:45.969Z,16.22
2023-03-13T12:01:16.589Z,16.06
2023-03-13T12:03:56.041Z,15.95
2023-03-13T12:06:31.876Z,15.67
2023-03-13T12:09:05.357Z,15.93
2023-03-13T12:11:35.450Z,16.05
2023-03-13T12:14:06.194Z,15.54
2023-03-13T12:16:42.580Z,14.64
2023-03-13T12:19:16.772Z,15.17
2023-03-13T12:21:50.630Z,15.11
2023-03-13T12:24:24.793Z,15.03
2023-03-13T12:26:56.965Z,15.63
2023-03-13T12:29:35.567Z,15.81
2023-03-13T12:32:06.317Z,15.98
2023-03-13T12:34:38.107Z,16.00
2023-03-13T12:37:12.702Z,16.18
2023-03-13T12:39:44.438Z,16.50
2023-03-13T12:42:22.658Z,16.40
2023-03-13T12:44:51.284Z,16.66
2023-03-13T12:47:28.044Z,17.07
2023-03-13T12:50:25.825Z,17.14
2023-03-13T12:53:22.641Z,17.43
2023-03-13T12:56:02.700Z,18.28
2023-03-13T12:58:41.251Z,18.33
2023-03-13T13:01:15.087Z,18.79
2023-03-13T13:03:52.652Z,18.58
2023-03-13T13:06:21.018Z,18.96
2023-03-13T13:09:09.857Z,18.97
2023-03-13T13:11:49.132Z,19.44
2023-03-13T13:15:00.071Z,19.55
2023-03-13T13:17:34.395Z,20.12
2023-03-13T13:20:32.057Z,19.77
2023-03-13T13:23:28.367Z,20.08
2023-03-13T13:26:48.537Z,20.56
2023-03-13T13:29:59.623Z,20.57
2023-03-13T13:32:48.419Z,20.82
2023-03-13T13:35:31.387Z,20.76
2023-03-13T13:38:23.574Z,20.79
2023-03-13T13:41:05.267Z,20.97
2023-03-13T13:43:35.054Z,22.09
2023-03-13T13:46:09.187Z,21.90
2023-03-13T13:48:39.992Z,22.05
2023-03-13T13:51:26.478Z,21.93
2023-03-13T13:53:57.224Z,22.64
2023-03-13T13:56:43.918Z,22.10
2023-03-13T13:59:37.469Z,23.05
2023-03-13T14:02:22.270Z,22.70
2023-03-13T14:04:54.306Z,23.25
2023-03-13T14:07:27.103Z,22.84
2023-03-13T14:10:03.171Z,22.98
2023-03-13T14:12:34.175Z,22.81
2023-03-13T14:15:19.339Z,22.55
2023-03-13T14:17:49.490Z,23.48
2023-03-13T14:20:32.671Z,23.47
2023-03-13T14:23:02.542Z,24.23
2023-03-13T14:25:43.898Z,24.19
2023-03-13T14:28:22.595Z,24.44
2023-03-13T14:30:52.837Z,24.86
2023-03-13T14:33:21.510Z,25.25
2023-03-13T14:35:50.807Z,25.24
2023-03-13T14:38:20.863Z,24.90
2023-03-13T14:40:49.861Z,25.24
2023-03-13T14:43:30.960Z,24.66
2023-03-13T14:46:00.094Z,24.80
2023-03-13T14:48:32.972Z,24.83
2023-03-13T14:51:15.697Z,24.70
2023-03-13T14:53:55.610Z,24.48
2023-03-13T14:56:32.687Z,24.20
2023-03-13T14:59:27.221Z,24.03
2023-03-13T15:02:00.843Z,24.39
2023-03-13T15:04:52.168Z,23.70
2023-03-13T15:07:22.991Z,24.24
2023-03-13T15:09:52.103Z,24.12
2023-03-13T15:12:22.554Z,24.31
2023-03-13T15:14:53.022Z,24.04
2023-03-13T15:17:22.621Z,24.22
2023-03-13T15:19:55.383Z,23.81
2023-03-13T15:22:29.846Z,24.07
2023-03-13T15:25:07.248Z,24.30
2023-03-13T15:27:36.608Z,24.50
2023-03-13T15:30:07.741Z,24.16
2023-03-13T15:32:38.539Z,24.08
2023-03-13T15:35:23.515Z,23.80
2023-03-13T15:37:52.308Z,24.46
2023-03-13T15:40:21.113Z,24.53
2023-03-13T15:42:49.694Z,24.59
2023-03-13T15:45:19.318Z,24.31
2023-03-13T15:47:48.265Z,24.59
2023-03-13T15:50:18.586Z,24.40
2023-03-13T15:52:47.084Z,24.69
2023-03-13T15:55:15.903Z,24.86
2023-03-13T15:57:47.319Z,24.68
2023-03-13T16:00:21.863Z,24.11
2023-03-13T16:02:50.950Z,24.61
2023-03-13T16:05:19.545Z,24.58
2023-03-13T16:07:48.156Z,24.73
2023-03-13T16:10:19.232Z,24.49
2023-03-13T16:12:47.595Z,23.66
2023-03-13T16:15:16.413Z,24.82
2023-03-13T16:17:46.483Z,24.55
2023-03-13T16:20:17.488Z,24.99
2023-03-13T16:22:46.693Z,25.12
2023-03-13T16:25:15.692Z,24.87
2023-03-13T16:27:44.547Z,25.09
2023-03-13T16:30:19.141Z,24.39
2023-03-13T16:32:49.330Z,24.81
2023-03-13T16:35:17.845Z,24.99
2023-03-13T16:37:46.492Z,25.19
2023-03-13T16:40:19.702Z,24.79
2023-03-13T16:42:48.379Z,25.27
2023-03-13T16:45:16.956Z,25.31
2023-03-13T16:47:46.737Z,25.18
2023-03-13T16:50:24.703Z,24.60
2023-03-13T16:52:53.922Z,25.00
2023-03-13T16:55:28.385Z,25.03
2023-03-13T16:57:57.350Z,25.26
2023-03-13T17:00:27.191Z,25.11
2023-03-13T17:02:59.113Z,25.20
2023-03-13T17:05:29.288Z,24.94
2023-03-13T17:07:57.972Z,25.34
2023-03-13T17:10:28.466Z,24.98
2023-03-13T17:12:57.032Z,25.17
2023-03-13T17:15:26.625Z,25.16
2023-03-13T17:17:55.356Z,25.29
2023-03-13T17:20:25.321Z,25.27
2023-03-13T17:22:56.373Z,24.89
2023-03-13T17:25:24.892Z,25.13
2023-03-13T17:27:53.747Z,25.21
2023-03-13T17:30:25.394Z,24.95
2023-03-13T17:32:54.208Z,25.13
2023-03-13T17:35:23.175Z,25.15
2023-03-13T17:37:51.807Z,25.24
2023-03-13T17:40:23.947Z,24.92
2023-03-13T17:42:52.528Z,24.79
2023-03-13T17:45:20.930Z,25.01
2023-03-13T17:47:50.488Z,24.75
2023-03-13T17:50:20.810Z,24.76
2023-03-13T17:52:49.465Z,24.85
2023-03-13T17:55:18.467Z,24.56
2023-03-13T17:57:48.911Z,24.67
2023-03-13T18:00:26.729Z,23.89
2023-03-13T18:02:55.399Z,24.57
2023-03-13T18:05:25.569Z,24.30
2023-03-13T18:07:55.992Z,24.05
2023-03-13T18:10:25.484Z,24.30
2023-03-13T18:12:55.465Z,24.12
2023-03-13T18:15:25.097Z,24.26
2023-03-13T18:17:54.753Z,24.20
2023-03-13T18:20:26.142Z,24.03
2023-03-13T18:22:59.493Z,23.87
2023-03-13T18:25:28.133Z,24.11
2023-03-13T18:27:58.165Z,23.98
2023-03-13T18:30:27.292Z,24.06
2023-03-13T18:32:56.242Z,24.17
2023-03-13T18:35:24.550Z,24.05
2023-03-13T18:37:53.184Z,23.97
2023-03-13T18:40:24.590Z,23.66
2023-03-13T18:42:53.272Z,24.31
2023-03-13T18:45:24.687Z,23.72
2023-03-13T18:47:53.347Z,23.66
2023-03-13T18:50:26.346Z,23.46
2023-03-13T18:52:56.190Z,23.56
2023-03-13T18:55:25.373Z,23.43
2023-03-13T18:57:54.490Z,23.38
2023-03-13T19:00:26.157Z,23.03
2023-03-13T19:02:54.801Z,23.01
2023-03-13T19:05:23.583Z,22.74
2023-03-13T19:07:52.496Z,22.67
2023-03-13T19:10:24.296Z,22.33
2023-03-13T19:12:54.248Z,22.51
2023-03-13T19:15:26.988Z,22.14
2023-03-13T19:17:57.071Z,22.04
2023-03-13T19:20:25.608Z,21.78
2023-03-13T19:22:56.225Z,21.92
2023-03-13T19:25:24.807Z,21.79
2023-03-13T19:27:53.378Z,21.93
2023-03-13T19:30:24.305Z,21.51
2023-03-13T19:32:53.253Z,21.53
2023-03-13T19:35:22.309Z,21.47
2023-03-13T19:37:51.387Z,21.43
2023-03-13T19:40:21.468Z,21.30
2023-03-13T19:42:50.108Z,20.98
2023-03-13T19:45:20.558Z,20.93
2023-03-13T19:47:50.635Z,21.09
2023-03-13T19:50:20.878Z,20.92
2023-03-13T19:52:49.827Z,20.94
2023-03-13T19:55:18.261Z,20.86
2023-03-13T19:57:46.986Z,20.52
2023-03-13T20:00:21.035Z,20.41
2023-03-13T20:02:52.388Z,20.81
2023-03-13T20:05:20.803Z,20.62
2023-03-13T20:07:49.476Z,20.75
2023-03-13T20:10:17.888Z,20.48
2023-03-13T20:12:46.445Z,20.37
2023-03-13T20:15:14.785Z,20.50
2023-03-13T20:17:44.284Z,20.46
2023-03-13T20:20:14.566Z,20.33
2023-03-13T20:22:43.368Z,20.35
2023-03-13T20:25:11.861Z,20.48
2023-03-13T20:27:40.552Z,20.15
2023-03-13T20:30:10.251Z,20.00
2023-03-13T20:32:49.103Z,19.86
2023-03-13T20:35:26.980Z,19.67
2023-03-13T20:37:57.891Z,19.81
2023-03-13T20:40:26.536Z,19.63
2023-03-13T20:42:55.465Z,19.96
2023-03-13T20:45:24.065Z,19.48
2023-03-13T20:47:52.598Z,19.98
2023-03-13T20:50:21.111Z,19.37
2023-03-13T20:52:51.162Z,19.44
2023-03-13T20:55:19.521Z,19.32
2023-03-13T20:57:48.104Z,19.32
2023-03-13T21:00:16.930Z,19.40
2023-03-13T21:02:46.845Z,19.10
2023-03-13T21:05:15.189Z,19.46
2023-03-13T21:07:44.026Z,19.62
2023-03-13T21:10:13.956Z,19.22
2023-03-13T21:12:42.818Z,19.30
2023-03-13T21:15:12.495Z,19.18
2023-03-13T21:17:41.722Z,19.26
2023-03-13T21:20:11.989Z,19.08
2023-03-13T21:22:41.188Z,19.16
2023-03-13T21:25:11.229Z,19.30
2023-03-13T21:27:43.865Z,19.14
2023-03-13T21:30:14.031Z,19.16
2023-03-13T21:32:42.963Z,19.10
2023-03-13T21:35:12.020Z,19.15
2023-03-13T21:37:40.869Z,19.41
2023-03-13T21:40:10.824Z,19.16
2023-03-13T21:42:41.091Z,19.20
2023-03-13T21:45:10.931Z,19.39
2023-03-13T21:47:40.495Z,19.67
2023-03-13T21:50:11.131Z,19.46
2023-03-13T21:52:41.360Z,19.65
2023-03-13T21:55:12.152Z,19.45
2023-03-13T21:57:42.171Z,19.31
2023-03-13T22:00:14.072Z,19.96
2023-03-13T22:02:44.278Z,19.74
2023-03-13T22:05:12.834Z,20.12
2023-03-13T22:07:41.427Z,20.14
2023-03-13T22:10:10.774Z,20.09
2023-03-13T22:12:39.388Z,20.41
2023-03-13T22:15:10.735Z,20.08
2023-03-13T22:17:39.333Z,20.24
2023-03-13T22:20:10.100Z,20.16
2023-03-13T22:22:38.760Z,20.24
2023-03-13T22:25:07.685Z,20.51
2023-03-13T22:27:36.465Z,20.32
2023-03-13T22:30:05.171Z,20.46
2023-03-13T22:32:35.433Z,20.28
2023-03-13T22:35:04.209Z,20.70
2023-03-13T22:37:32.943Z,21.02
2023-03-13T22:40:01.155Z,20.62
2023-03-13T22:42:29.704Z,20.49
2023-03-13T22:44:58.278Z,20.77
2023-03-13T22:47:27.089Z,20.53
2023-03-13T22:49:59.982Z,20.54
2023-03-13T22:52:31.109Z,20.80
2023-03-13T22:54:59.612Z,20.62
2023-03-13T22:57:30.321Z,20.64
2023-03-13T23:00:00.320Z,20.33
2023-03-13T23:02:30.208Z,20.49
2023-03-13T23:05:01.317Z,20.65
2023-03-13T23:07:31.227Z,20.66
2023-03-13T23:09:59.831Z,20.69
2023-03-13T23:12:30.951Z,20.73
2023-03-13T23:15:00.660Z,20.54
2023-03-13T23:17:31.677Z,20.73
2023-03-13T23:20:01.640Z,20.52
2023-03-13T23:22:33.058Z,20.77
2023-03-13T23:25:01.450Z,20.69
2023-03-13T23:27:30.143Z,20.67
2023-03-13T23:29:58.499Z,20.44
2023-03-13T23:32:27.113Z,20.79
2023-03-13T23:34:55.688Z,20.88
2023-03-13T23:37:25.693Z,20.64
2023-03-13T23:39:53.933Z,20.86
2023-03-13T23:42:22.685Z,20.68
2023-03-13T23:44:50.859Z,20.50
2023-03-13T23:47:19.579Z,20.78
2023-03-13T23:49:48.015Z,20.79
2023-03-13T23:52:16.572Z,20.94
2023-03-13T23:54:46.126Z,21.09
2023-03-13T23:57:14.702Z,21.44
2023-03-13T23:59:43.225Z,21.11
